Time;durP1;ratioP1;P1;durP2;ratioP2;P2;SDS_P1;SDS_P2;PMS_P1;PMS_P2;Temp;Humidity;BMP_temperature;BMP_pressure;BME280_temperature;BME280_humidity;BME280_pressure;Samples;Min_cycle;Max_cycle;Signal;HPM_P1;HPM_P2
2022/05/21 00:00:45;;;;;;;12.55;8.73;;;;;;;16.01;63.17;100346.75;5075818;28;20048;-60
2022/05/21 00:03:15;;;;;;;13.43;8.40;;;;;;;15.99;63.49;100338.97;5076075;28;20063;-60
2022/05/21 00:05:46;;;;;;;12.32;8.57;;;;;;;15.99;63.39;100322.44;5074885;28;20449;-60
2022/05/21 00:08:16;;;;;;;13.45;8.70;;;;;;;15.99;63.34;100311.97;5075701;28;20048;-59
2022/05/21 00:10:44;;;;;;;10.68;7.72;;;;;;;15.97;63.72;100303.34;5104033;28;20039;-60
2022/05/21 00:13:12;;;;;;;13.68;8.95;;;;;;;15.98;63.85;100289.34;5116563;28;20066;-59
2022/05/21 00:15:41;;;;;;;11.68;8.57;;;;;;;15.99;64.13;100283.22;5078509;28;20159;-60
2022/05/21 00:18:12;;;;;;;12.27;8.18;;;;;;;16.00;63.70;100277.09;5081345;28;20059;-60
2022/05/21 00:20:50;;;;;;;12.43;8.50;;;;;;;16.00;63.84;100277.09;5095942;28;20056;-60
2022/05/21 00:23:29;;;;;;;11.88;8.82;;;;;;;16.01;63.96;100263.94;5095543;28;20059;-60
2022/05/21 00:26:00;;;;;;;13.85;9.30;;;;;;;16.04;64.00;100268.22;5095782;28;20135;-60
2022/05/21 00:28:28;;;;;;;10.90;8.50;;;;;;;16.05;63.67;100260.31;5095853;28;20063;-60
2022/05/21 00:31:04;;;;;;;11.98;7.35;;;;;;;16.06;63.79;100253.31;5095510;28;20087;-60
2022/05/21 00:33:43;;;;;;;15.32;9.65;;;;;;;16.07;63.74;100245.41;5095389;28;20056;-60
2022/05/21 00:36:13;;;;;;;11.98;8.10;;;;;;;16.07;63.77;100239.34;5095131;28;20056;-60
2022/05/21 00:38:44;;;;;;;10.80;8.40;;;;;;;16.06;63.97;100240.25;5075500;28;20080;-61
2022/05/21 00:41:15;;;;;;;10.93;8.07;;;;;;;16.05;63.84;100228.94;5081278;28;20051;-60
2022/05/21 00:43:46;;;;;;;11.68;8.48;;;;;;;16.06;63.97;100225.41;5094856;28;20052;-60
2022/05/21 00:46:18;;;;;;;10.02;7.20;;;;;;;16.08;63.82;100217.50;5095293;28;20388;-60
2022/05/21 00:48:57;;;;;;;13.27;8.88;;;;;;;16.09;63.69;100214.84;5094421;28;20048;-60
2022/05/21 00:51:33;;;;;;;14.70;8.98;;;;;;;16.10;64.17;100211.31;5075068;28;20056;-60
2022/05/21 00:54:18;;;;;;;11.30;8.02;;;;;;;16.13;64.21;100199.03;5074457;28;20133;-60
2022/05/21 00:56:50;;;;;;;12.75;8.20;;;;;;;16.10;64.12;100202.63;5074819;28;20488;-60
2022/05/21 01:02:10;;;;;;;14.02;8.90;;;;;;;16.08;64.18;100186.13;5074508;28;20101;-60
2022/05/21 01:04:42;;;;;;;13.73;8.57;;;;;;;16.10;64.56;100189.53;5074421;28;20075;-60
2022/05/21 01:07:19;;;;;;;18.58;10.80;;;;;;;16.12;64.31;100177.25;5073637;28;20052;-60
2022/05/21 01:09:57;;;;;;;16.33;10.57;;;;;;;16.10;64.35;100176.47;5080785;28;20040;-60
2022/05/21 01:12:28;;;;;;;13.85;9.30;;;;;;;16.13;64.24;100168.53;5076259;28;20044;-60
2022/05/21 01:14:58;;;;;;;14.07;9.68;;;;;;;16.14;64.52;100172.84;5075107;28;20049;-60
2022/05/21 01:17:27;;;;;;;17.42;11.05;;;;;;;16.16;64.38;100176.25;5074650;28;20064;-60
2022/05/21 01:20:03;;;;;;;16.08;10.55;;;;;;;16.18;64.12;100168.34;5094648;28;20059;-60
2022/05/21 01:22:44;;;;;;;15.80;9.57;;;;;;;16.19;64.24;100173.50;5094620;28;20072;-60
2022/05/21 01:25:15;;;;;;;13.70;9.45;;;;;;;16.19;64.26;100168.28;5090618;28;20055;-60
2022/05/21 01:27:51;;;;;;;15.13;9.80;;;;;;;16.20;63.90;100169.13;5073953;28;20140;-60
2022/05/21 01:30:28;;;;;;;14.30;9.85;;;;;;;16.20;64.40;100154.28;5086258;28;20688;-60
2022/05/21 01:32:58;;;;;;;13.45;9.75;;;;;;;16.18;64.27;100150.88;5094260;28;20048;-60
2022/05/21 01:35:26;;;;;;;16.77;10.60;;;;;;;16.19;64.28;100152.59;5090006;28;20048;-60
2022/05/21 01:37:56;;;;;;;14.02;9.73;;;;;;;16.21;64.66;100153.38;5093783;28;20052;-60
2022/05/21 01:40:26;;;;;;;13.40;9.48;;;;;;;16.22;64.73;100147.25;5088456;28;20640;-60
2022/05/21 01:45:39;;;;;;;13.93;9.75;;;;;;;16.24;64.82;100134.09;5092505;28;20342;-60
2022/05/21 01:48:18;;;;;;;15.68;9.77;;;;;;;16.25;64.57;100123.56;5093575;28;20071;-60
2022/05/21 01:50:49;;;;;;;12.57;9.32;;;;;;;16.26;65.06;100127.88;5076025;28;20072;-60
2022/05/21 01:53:20;;;;;;;16.60;9.57;;;;;;;16.28;64.79;100119.97;5073731;28;20056;-60
2022/05/21 01:55:48;;;;;;;15.57;9.57;;;;;;;16.27;65.05;100113.91;5073612;28;20062;-60
2022/05/21 01:58:15;;;;;;;12.90;10.30;;;;;;;16.27;65.33;100108.66;5073617;28;20060;-60
2022/05/21 02:00:51;;;;;;;11.82;9.18;;;;;;;16.28;65.17;100105.13;5073236;28;20059;-60
2022/05/21 02:03:22;;;;;;;14.13;9.18;;;;;;;16.29;65.09;100112.06;5073024;28;20598;-60
2022/05/21 02:05:50;;;;;;;13.25;9.93;;;;;;;16.28;64.91;100102.53;5073437;28;20044;-60
2022/05/21 02:08:27;;;;;;;14.73;8.82;;;;;;;16.29;65.18;100101.59;5072817;28;20385;-60
2022/05/21 02:10:55;;;;;;;13.65;9.75;;;;;;;16.29;65.26;100090.31;5079068;28;20483;-60
2022/05/21 02:13:25;;;;;;;13.35;9.07;;;;;;;16.30;65.12;100085.00;5072961;28;20056;-60
2022/05/21 02:15:56;;;;;;;14.57;10.00;;;;;;;16.30;65.26;100079.78;5072838;28;20062;-60
2022/05/21 02:18:33;;;;;;;12.68;9.43;;;;;;;16.30;65.29;100074.53;5081852;28;20083;-60
2022/05/21 02:21:03;;;;;;;13.90;9.40;;;;;;;16.30;65.08;100069.31;5093133;28;20051;-60
2022/05/21 02:23:38;;;;;;;14.73;8.98;;;;;;;16.32;65.03;100064.88;5072552;28;20131;-60
2022/05/21 02:26:15;;;;;;;11.27;8.02;;;;;;;16.31;65.24;100057.94;5082971;28;20044;-60
2022/05/21 02:28:44;;;;;;;10.85;8.52;;;;;;;16.32;65.12;100048.31;5092888;28;20048;-60
2022/05/21 02:31:14;;;;;;;14.45;8.88;;;;;;;16.35;65.18;100048.19;5092840;28;20087;-61
2022/05/21 02:33:43;;;;;;;16.77;9.20;;;;;;;16.36;65.13;100040.28;5092987;28;20083;-60
2022/05/21 02:39:25;;;;;;;14.40;8.82;;;;;;;16.35;65.07;100033.34;5090364;28;20338;-60
2022/05/21 02:41:53;;;;;;;13.93;9.05;;;;;;;16.37;65.25;100031.50;5092433;28;20063;-60
2022/05/21 02:44:24;;;;;;;12.85;9.20;;;;;;;16.39;65.19;100029.69;5092871;28;20122;-59
2022/05/21 02:47:01;;;;;;;15.63;9.13;;;;;;;16.41;65.14;100027.84;5091154;28;20055;-60
2022/05/21 02:49:28;;;;;;;13.00;9.25;;;;;;;16.42;65.04;100029.53;5086137;28;20135;-59
2022/05/21 02:51:58;;;;;;;16.40;9.48;;;;;;;16.45;65.21;100025.09;5071785;28;20088;-61
2022/05/21 02:54:32;;;;;;;13.05;8.88;;;;;;;16.48;65.10;100012.72;5071984;28;20128;-61
2022/05/21 02:57:00;;;;;;;12.73;9.50;;;;;;;16.52;65.30;100008.22;5071540;28;20052;-60
2022/05/21 02:59:30;;;;;;;16.50;10.55;;;;;;;16.52;65.06;100013.44;5072362;28;20045;-61
2022/05/21 03:01:58;;;;;;;15.13;9.20;;;;;;;16.52;65.44;100002.97;5071344;28;20063;-60
2022/05/21 03:04:27;;;;;;;14.15;10.55;;;;;;;16.53;65.47;99999.44;5089374;28;20052;-59
2022/05/21 03:06:56;;;;;;;13.68;9.90;;;;;;;16.54;65.51;99980.22;5093054;28;20052;-59
2022/05/21 03:12:17;;;;;;;15.77;9.80;;;;;;;16.58;65.11;99976.53;5091587;28;20059;-60
2022/05/21 03:14:46;;;;;;;17.27;11.57;;;;;;;16.55;65.49;99976.69;5092296;28;20062;-59
2022/05/21 03:17:16;;;;;;;14.40;10.07;;;;;;;16.53;65.41;99965.44;5105506;28;20095;-59
2022/05/21 03:19:45;;;;;;;15.68;10.40;;;;;;;16.52;65.44;99948.88;5092011;28;20044;-60
2022/05/21 03:22:15;;;;;;;17.25;9.77;;;;;;;16.52;65.69;99935.81;5091460;28;20040;-60
2022/05/21 03:24:42;;;;;;;12.27;9.30;;;;;;;16.52;65.83;99929.72;5092997;28;20058;-60
2022/05/21 03:27:25;;;;;;;15.00;11.13;;;;;;;16.54;66.04;99925.28;5073130;28;20079;-60
2022/05/21 03:29:55;;;;;;;15.13;9.90;;;;;;;16.53;65.72;99908.72;5072648;28;20102;-60
2022/05/21 03:32:25;;;;;;;16.45;10.98;;;;;;;16.52;66.13;99900.94;5072552;28;20178;-60
2022/05/21 03:34:54;;;;;;;15.98;11.32;;;;;;;16.50;66.04;99887.09;5072121;28;20185;-60
2022/05/21 03:37:24;;;;;;;15.27;10.57;;;;;;;16.49;66.54;99893.25;5081892;28;20081;-60
2022/05/21 03:42:37;;;;;;;17.45;11.77;;;;;;;16.49;66.82;99882.78;5092354;28;20047;-60
2022/05/21 03:45:13;;;;;;;16.67;11.63;;;;;;;16.49;66.47;99877.56;5092516;28;20052;-60
2022/05/21 03:47:45;;;;;;;16.63;12.52;;;;;;;16.48;66.91;99875.84;5092621;28;20060;-60
2022/05/21 03:50:15;;;;;;;16.00;11.60;;;;;;;16.46;66.92;99862.00;5074330;28;20067;-60
2022/05/21 03:52:46;;;;;;;18.77;12.15;;;;;;;16.42;66.49;99859.53;5092679;28;20087;-60
2022/05/21 03:55:12;;;;;;;15.00;11.63;;;;;;;16.40;66.63;99848.28;5092418;28;20091;-60
2022/05/21 03:57:45;;;;;;;17.80;12.13;;;;;;;16.37;66.73;99843.19;5093675;28;20058;-60
2022/05/21 04:00:17;;;;;;;16.55;12.60;;;;;;;16.39;66.88;99843.97;5081953;28;20056;-60
2022/05/21 04:02:45;;;;;;;16.30;11.55;;;;;;;16.40;67.12;99836.97;5075927;28;20059;-60
2022/05/21 04:05:14;;;;;;;18.73;12.77;;;;;;;16.39;66.96;99836.13;5074856;28;20400;-60
2022/05/21 04:07:44;;;;;;;17.77;13.07;;;;;;;16.37;67.06;99830.13;5075581;28;20057;-60
2022/05/21 04:10:14;;;;;;;18.40;11.88;;;;;;;16.39;67.20;99830.91;5095417;28;20469;-60
2022/05/21 04:12:45;;;;;;;15.85;11.70;;;;;;;16.40;67.33;99832.59;5116076;28;20146;-60
2022/05/21 04:15:16;;;;;;;20.65;13.32;;;;;;;16.41;67.36;99830.81;5116141;28;20051;-59
2022/05/21 04:17:46;;;;;;;15.77;11.15;;;;;;;16.40;67.18;99827.38;5112526;28;20139;-60
2022/05/21 04:20:15;;;;;;;16.58;11.68;;;;;;;16.36;67.39;99828.44;5095674;28;20075;-60
2022/05/21 04:22:52;;;;;;;16.88;11.20;;;;;;;16.34;67.28;99856.41;5095473;28;20499;-60
2022/05/21 04:25:21;;;;;;;17.73;12.20;;;;;;;16.28;67.50;99895.94;5095160;28;20044;-60
2022/05/21 04:27:53;;;;;;;20.10;12.73;;;;;;;16.25;67.89;99885.59;5095000;28;20406;-60
2022/05/21 04:30:25;;;;;;;21.13;13.68;;;;;;;15.83;80.98;99822.16;5094971;28;20052;-60
2022/05/21 04:32:54;;;;;;;26.88;15.57;;;;;;;15.55;94.27;99818.09;5094807;28;20052;-60
2022/05/21 04:35:24;;;;;;;23.63;14.88;;;;;;;15.45;98.09;99829.84;5095110;28;20069;-60
2022/05/21 04:37:54;;;;;;;26.65;14.65;;;;;;;15.40;98.47;99821.34;5095207;28;20048;-60
2022/05/21 04:40:31;;;;;;;23.38;14.60;;;;;;;15.43;97.59;99821.22;5095119;28;20044;-60
2022/05/21 04:42:59;;;;;;;23.98;15.90;;;;;;;15.53;91.70;99822.53;5074566;28;20472;-59
2022/05/21 04:45:29;;;;;;;23.27;15.88;;;;;;;15.59;87.08;99827.50;5074853;28;20457;-59
2022/05/21 04:47:57;;;;;;;20.65;14.25;;;;;;;15.64;85.54;99820.34;5073650;28;20053;-60
2022/05/21 04:50:24;;;;;;;27.88;14.82;;;;;;;15.69;84.25;99823.63;5074607;28;20056;-59
2022/05/21 04:52:54;;;;;;;22.33;14.93;;;;;;;15.72;84.20;99822.63;5074377;28;20113;-60
2022/05/21 04:55:22;;;;;;;21.02;15.27;;;;;;;15.74;84.83;99811.19;5074548;28;20414;-59
2022/05/21 04:57:50;;;;;;;20.83;14.50;;;;;;;15.78;83.94;99806.69;5074812;28;20048;-59
2022/05/21 05:00:18;;;;;;;21.13;14.57;;;;;;;15.84;83.41;99789.88;5073086;28;20060;-59
2022/05/21 05:02:46;;;;;;;21.20;14.20;;;;;;;15.87;82.61;99789.75;5074534;28;20056;-60
2022/05/21 05:05:15;;;;;;;21.95;14.80;;;;;;;15.90;82.12;99780.00;5074785;28;20056;-60
2022/05/21 05:07:43;;;;;;;27.17;15.90;;;;;;;15.93;81.18;99779.00;5074691;28;20054;-60
2022/05/21 05:10:12;;;;;;;24.35;16.33;;;;;;;15.96;80.83;99773.63;5092227;28;20100;-60
2022/05/21 05:12:42;;;;;;;19.92;13.85;;;;;;;16.02;80.51;99765.50;5114762;28;20130;-60
2022/05/21 05:15:13;;;;;;;22.17;13.93;;;;;;;16.05;80.06;99757.53;5090794;28;20544;-60
2022/05/21 05:17:44;;;;;;;21.00;14.57;;;;;;;16.08;78.33;99780.91;5076126;28;20052;-60
2022/05/21 05:20:11;;;;;;;23.50;15.30;;;;;;;16.12;77.71;99766.78;5092463;28;20059;-60
2022/05/21 05:22:41;;;;;;;17.67;13.07;;;;;;;16.17;77.11;99757.00;5092295;28;20121;-59
2022/05/21 05:25:11;;;;;;;21.73;14.77;;;;;;;16.18;76.21;99758.69;5091652;28;20102;-60
2022/05/21 05:27:39;;;;;;;18.58;13.52;;;;;;;16.19;76.30;99757.75;5074237;28;20048;-60
2022/05/21 05:30:11;;;;;;;19.63;13.23;;;;;;;16.20;76.05;99749.00;5075370;28;20135;-60
2022/05/21 05:32:38;;;;;;;17.15;12.60;;;;;;;16.20;76.17;99745.53;5093180;28;20048;-60
2022/05/21 05:35:13;;;;;;;18.17;12.82;;;;;;;16.22;75.78;99749.78;5094032;28;20048;-60
2022/05/21 05:37:41;;;;;;;19.10;12.68;;;;;;;16.23;75.54;99735.78;5093981;28;20116;-60
2022/05/21 05:40:17;;;;;;;16.83;12.07;;;;;;;16.23;75.30;99738.41;5093819;28;20415;-60
2022/05/21 05:42:48;;;;;;;17.65;12.48;;;;;;;16.20;75.11;99735.94;5093905;28;20055;-60
2022/05/21 05:45:20;;;;;;;18.63;12.75;;;;;;;16.24;75.08;99736.63;5094243;28;20426;-60
2022/05/21 05:47:49;;;;;;;18.15;13.50;;;;;;;16.22;75.03;99734.09;5094138;28;20044;-60
2022/05/21 05:50:26;;;;;;;17.15;12.23;;;;;;;16.26;75.30;99722.56;5081529;28;20056;-60
2022/05/21 05:52:54;;;;;;;16.27;11.85;;;;;;;16.26;75.23;99717.34;5073321;28;20060;-59
2022/05/21 05:55:30;;;;;;;17.98;11.90;;;;;;;16.28;74.88;99718.09;5073508;28;20560;-60
2022/05/21 05:57:58;;;;;;;14.70;10.77;;;;;;;16.29;74.88;99713.72;5072819;28;20113;-60
2022/05/21 06:00:27;;;;;;;15.10;11.05;;;;;;;16.30;74.86;99711.03;5073490;28;20480;-60
2022/05/21 06:03:01;;;;;;;18.75;12.27;;;;;;;16.29;75.07;99709.34;5073600;28;20084;-60
2022/05/21 06:05:34;;;;;;;16.50;11.88;;;;;;;16.30;74.70;99703.19;5073445;28;20515;-60
2022/05/21 06:08:05;;;;;;;17.60;12.70;;;;;;;16.34;74.82;99696.88;5073427;28;20053;-59
2022/05/21 06:10:36;;;;;;;16.48;12.88;;;;;;;16.37;74.96;99696.75;5086281;28;20054;-60
2022/05/21 06:13:13;;;;;;;17.60;11.95;;;;;;;16.38;75.08;99693.19;5093484;28;20060;-59
2022/05/21 06:15:43;;;;;;;17.83;11.90;;;;;;;16.40;74.84;99685.28;5093660;28;20059;-60
2022/05/21 06:18:12;;;;;;;16.48;11.57;;;;;;;16.39;74.76;99694.91;5093130;28;20117;-60
2022/05/21 06:20:48;;;;;;;14.27;10.35;;;;;;;16.41;74.73;99695.66;5092778;28;20052;-60
2022/05/21 06:23:19;;;;;;;17.40;12.35;;;;;;;16.44;74.53;99692.06;5093574;28;20040;-60
2022/05/21 06:28:29;;;;;;;13.15;10.40;;;;;;;16.50;74.97;99685.66;5073103;28;20045;-60
2022/05/21 06:31:00;;;;;;;13.25;10.25;;;;;;;16.52;74.59;99689.06;5072904;28;20048;-59
2022/05/21 06:33:30;;;;;;;14.43;10.85;;;;;;;16.53;74.65;99690.75;5081262;28;20048;-59
2022/05/21 06:36:19;;;;;;;14.13;10.80;;;;;;;16.56;74.66;99690.59;5093328;28;20052;-59
2022/05/21 06:38:49;;;;;;;13.60;9.88;;;;;;;16.57;74.62;99687.06;5093465;28;20138;-59
2022/05/21 06:41:17;;;;;;;16.05;11.73;;;;;;;16.60;74.24;99692.13;5093434;28;20048;-58
2022/05/21 06:43:47;;;;;;;16.55;11.63;;;;;;;16.63;74.35;99678.91;5093201;28;20048;-59
2022/05/21 06:46:14;;;;;;;17.00;12.32;;;;;;;16.65;74.26;99669.25;5092942;28;20575;-59
2022/05/21 06:48:44;;;;;;;17.90;11.95;;;;;;;16.68;74.04;99666.50;5092960;28;20051;-59
2022/05/21 06:51:26;;;;;;;17.40;11.10;;;;;;;16.66;74.16;99670.97;5072695;28;20485;-60
2022/05/21 06:53:53;;;;;;;13.55;10.10;;;;;;;16.67;73.98;99675.28;5071756;28;20060;-60
2022/05/21 06:56:23;;;;;;;13.07;9.20;;;;;;;16.69;74.39;99670.81;5073045;28;20100;-60
2022/05/21 06:58:54;;;;;;;17.75;11.35;;;;;;;16.68;74.20;99663.88;5072758;28;20052;-60
2022/05/21 07:01:24;;;;;;;21.08;12.93;;;;;;;16.69;74.39;99666.44;5072992;28;20059;-60
2022/05/21 07:03:54;;;;;;;19.30;13.25;;;;;;;16.70;74.34;99662.88;5073521;28;20056;-60
2022/05/21 07:11:52;;;;;;;18.65;12.13;;;;;;;16.70;74.64;99664.66;5088523;28;20058;-60
2022/05/21 07:14:20;;;;;;;15.82;11.68;;;;;;;16.71;74.55;99666.34;5078480;28;20084;-60
2022/05/21 07:16:50;;;;;;;5.88;4.45;;;;;;;16.74;74.74;99668.81;5092431;28;20064;-60
2022/05/21 07:19:28;;;;;;;3.15;2.10;;;;;;;16.74;75.14;99667.97;5092469;28;20052;-60
2022/05/21 07:22:14;;;;;;;2.85;1.52;;;;;;;16.69;76.23;99666.44;5092761;28;20427;-60
2022/05/21 07:24:50;;;;;;;2.03;1.00;;;;;;;16.63;75.86;99666.66;5092408;28;20056;-60
2022/05/21 07:27:19;;;;;;;2.05;0.93;;;;;;;16.59;75.67;99664.28;5072276;28;20140;-59
2022/05/21 07:29:47;;;;;;;1.27;0.75;;;;;;;16.58;75.78;99673.06;5072266;28;20063;-60
2022/05/21 07:32:28;;;;;;;1.67;1.00;;;;;;;16.52;76.00;99668.13;5091936;28;20140;-60
2022/05/21 07:35:08;;;;;;;0.88;0.60;;;;;;;16.45;75.75;99682.44;5095710;28;20106;-60
2022/05/21 07:37:38;;;;;;;1.23;0.70;;;;;;;16.40;75.88;99680.91;5096346;28;20131;-59
2022/05/21 07:40:18;;;;;;;2.53;0.88;;;;;;;16.36;76.14;99687.19;5096314;28;20125;-60
2022/05/21 07:42:46;;;;;;;1.73;1.00;;;;;;;16.33;75.92;99689.97;5096618;28;20058;-60
2022/05/21 07:45:23;;;;;;;2.30;1.50;;;;;;;16.32;75.45;99698.72;5095537;28;20047;-59
2022/05/21 07:47:54;;;;;;;2.13;1.38;;;;;;;16.28;75.46;99696.34;5096255;28;20139;-60
2022/05/21 07:50:22;;;;;;;2.30;1.50;;;;;;;16.28;75.18;99697.19;5081009;28;20060;-60
2022/05/21 07:52:57;;;;;;;3.20;1.75;;;;;;;16.26;74.97;99704.25;5075729;28;20519;-60
2022/05/21 07:55:27;;;;;;;2.90;1.73;;;;;;;16.19;74.76;99697.63;5075178;28;20448;-60
2022/05/21 07:57:58;;;;;;;3.00;1.65;;;;;;;16.15;74.88;99701.31;5075392;28;20453;-60
2022/05/21 08:00:26;;;;;;;2.50;1.65;;;;;;;16.14;74.95;99693.53;5075906;28;20059;-59
2022/05/21 08:02:56;;;;;;;2.08;1.20;;;;;;;16.09;74.74;99686.72;5079041;28;20373;-58
2022/05/21 08:05:25;;;;;;;2.15;1.33;;;;;;;16.04;74.67;99699.19;5096019;28;20056;-59
2022/05/21 08:08:10;;;;;;;2.67;1.48;;;;;;;16.01;74.72;99701.09;5092148;28;20044;-59
2022/05/21 08:10:42;;;;;;;1.73;1.13;;;;;;;15.97;74.37;99702.16;5095857;28;20070;-58
2022/05/21 08:13:12;;;;;;;2.47;1.40;;;;;;;15.96;74.54;99705.69;5095950;28;20051;-59
2022/05/21 08:15:41;;;;;;;2.20;1.00;;;;;;;15.93;74.43;99700.59;5095798;28;20131;-60
2022/05/21 08:18:10;;;;;;;1.85;0.98;;;;;;;15.86;74.49;99699.19;5094172;28;20044;-60
2022/05/21 08:20:40;;;;;;;3.28;0.88;;;;;;;15.86;74.72;99707.88;5094670;28;20056;-60
2022/05/21 08:28:43;;;;;;;2.80;1.00;;;;;;;15.82;74.22;99710.72;5095508;28;20120;-59
2022/05/21 08:31:11;;;;;;;1.40;0.70;;;;;;;15.80;73.90;99709.94;5094697;28;20105;-59
2022/05/21 08:33:39;;;;;;;3.80;0.90;;;;;;;15.81;74.61;99709.00;5095447;28;20074;-59
2022/05/21 08:36:10;;;;;;;1.77;0.60;;;;;;;15.81;74.23;99722.94;5095482;28;20052;-59
2022/05/21 08:38:45;;;;;;;1.20;0.50;;;;;;;15.85;73.28;99731.47;5095169;28;20105;-58
2022/05/21 08:41:19;;;;;;;2.78;0.45;;;;;;;15.85;72.74;99713.19;5089388;28;20084;-59
2022/05/21 08:43:54;;;;;;;0.85;0.43;;;;;;;15.89;71.93;99730.41;5092619;28;20433;-59
2022/05/21 08:46:41;;;;;;;2.10;0.40;;;;;;;15.88;71.46;99749.63;5095436;28;20067;-58
2022/05/21 08:49:21;;;;;;;1.52;0.25;;;;;;;15.89;71.17;99751.31;5079643;28;20060;-59
2022/05/21 08:51:52;;;;;;;3.20;0.40;;;;;;;15.89;70.86;99764.38;5091011;28;20066;-58
2022/05/21 08:54:25;;;;;;;2.35;0.40;;;;;;;15.94;70.42;99765.03;5094343;28;20052;-60
2022/05/21 08:56:59;;;;;;;2.88;0.22;;;;;;;16.01;70.43;99789.97;5095417;28;20051;-59
2022/05/21 08:59:35;;;;;;;1.83;0.43;;;;;;;15.97;69.73;99791.88;5099991;28;20454;-59
2022/05/21 09:02:05;;;;;;;1.90;0.30;;;;;;;15.90;69.63;99806.13;5095139;28;20044;-59
2022/05/21 09:04:32;;;;;;;4.10;1.40;;;;;;;15.79;71.33;99844.97;5094982;28;20055;-59
2022/05/21 09:07:02;;;;;;;1.15;0.65;;;;;;;15.59;71.93;99839.72;5094997;28;20055;-60
2022/05/21 09:09:54;;;;;;;2.60;0.77;;;;;;;15.18;79.59;99914.56;5095343;28;20052;-60
2022/05/21 09:12:29;;;;;;;2.28;0.80;;;;;;;14.72;82.33;99916.34;5095228;28;20071;-60
2022/05/21 09:15:01;;;;;;;2.40;0.50;;;;;;;14.47;86.67;99945.94;5094290;28;20086;-59
2022/05/21 09:17:28;;;;;;;4.28;0.70;;;;;;;14.35;86.11;99948.09;5093497;28;20529;-59
2022/05/21 09:19:59;;;;;;;0.52;0.30;;;;;;;14.20;86.24;99975.56;5094752;28;20055;-59
2022/05/21 09:22:26;;;;;;;2.13;0.57;;;;;;;14.12;86.34;99998.44;5094348;28;20055;-59
2022/05/21 09:25:01;;;;;;;1.50;0.77;;;;;;;13.92;90.23;99998.25;5087330;28;20056;-59
2022/05/21 09:27:35;;;;;;;0.90;0.50;;;;;;;13.86;90.70;100005.38;5084203;28;20048;-59
2022/05/21 09:30:23;;;;;;;1.08;0.40;;;;;;;13.90;88.59;100021.75;5093940;28;20063;-59
2022/05/21 09:33:01;;;;;;;1.58;0.30;;;;;;;13.87;89.27;100040.94;5094892;28;20084;-59
2022/05/21 09:35:32;;;;;;;1.10;0.60;;;;;;;13.87;88.09;100050.50;5094528;28;20048;-59
2022/05/21 09:38:13;;;;;;;5.28;2.25;;;;;;;13.88;88.99;100058.28;5094426;28;20055;-59
2022/05/21 09:40:44;;;;;;;2.45;1.20;;;;;;;13.88;87.39;100079.13;5094590;28;20052;-59
2022/05/21 09:46:22;;;;;;;4.75;1.55;;;;;;;13.96;84.93;100086.69;5091315;28;20106;-59
2022/05/21 09:48:59;;;;;;;1.30;0.63;;;;;;;13.98;83.07;100104.88;5094536;28;20080;-61
2022/05/21 09:51:33;;;;;;;0.90;0.38;;;;;;;14.04;81.23;100120.31;5090564;28;20110;-62
2022/05/21 09:54:03;;;;;;;1.17;0.50;;;;;;;14.07;82.48;100115.03;5091739;28;20060;-62
2022/05/21 09:56:34;;;;;;;0.70;0.32;;;;;;;14.13;81.82;100125.25;5091541;28;20048;-62
2022/05/21 09:59:15;;;;;;;1.85;0.63;;;;;;;14.15;76.67;100133.88;5093098;28;20044;-62
2022/05/21 10:01:47;;;;;;;3.00;1.55;;;;;;;14.16;76.78;100140.78;5094175;28;20075;-62
2022/05/21 10:04:24;;;;;;;1.58;0.60;;;;;;;14.25;76.11;100150.91;5090981;28;20151;-62
2022/05/21 10:07:09;;;;;;;1.20;0.60;;;;;;;14.39;75.49;100155.66;5093681;28;20087;-62
2022/05/21 10:12:46;;;;;;;0.20;0.20;;;;;;;14.39;75.40;100172.16;5051042;28;20127;-62
2022/05/21 10:15:20;;;;;;;1.85;0.32;;;;;;;14.49;73.97;100170.97;5037751;28;20161;-62
2022/05/21 10:17:54;;;;;;;0.50;0.35;;;;;;;14.58;73.16;100164.63;5024938;28;20048;-63
2022/05/21 10:20:30;;;;;;;1.10;0.40;;;;;;;14.66;72.43;100198.28;5011683;28;20450;-62
2022/05/21 10:23:08;;;;;;;0.30;0.20;;;;;;;14.68;72.72;100201.69;5026810;28;20053;-62
2022/05/21 10:25:52;;;;;;;0.80;0.13;;;;;;;14.72;71.20;100204.16;5024667;28;20082;-62
2022/05/21 10:28:33;;;;;;;0.95;0.30;;;;;;;14.79;71.85;100210.00;5010875;28;20042;-62
2022/05/21 10:31:26;;;;;;;1.30;0.50;;;;;;;14.89;70.79;100223.59;5020338;28;20053;-62
2022/05/21 10:34:16;;;;;;;0.50;0.20;;;;;;;14.98;70.03;100216.28;5018202;28;20056;-61
2022/05/21 10:37:00;;;;;;;0.52;0.10;;;;;;;15.10;69.34;100208.06;5011174;28;20066;-62
2022/05/21 10:39:39;;;;;;;1.55;0.30;;;;;;;15.24;69.56;100220.63;5011451;28;20093;-62
2022/05/21 10:42:38;;;;;;;0.77;0.20;;;;;;;15.35;68.10;100215.88;5024997;28;20065;-61
2022/05/21 10:45:20;;;;;;;0.60;0.20;;;;;;;15.42;67.88;100237.38;5029978;28;20053;-62
2022/05/21 10:48:27;;;;;;;2.08;0.20;;;;;;;15.56;66.92;100227.28;5030631;28;20045;-62
2022/05/21 10:50:56;;;;;;;;;;;;;;;15.63;66.70;100236.66;5073678;28;20110;-62
2022/05/21 10:53:45;;;;;;;1.67;0.30;;;;;;;15.82;66.34;100249.03;5072715;28;19931;-63
2022/05/21 10:56:53;;;;;;;0.50;0.20;;;;;;;16.01;66.25;100252.66;5073176;28;20049;-62
2022/05/21 11:00:01;;;;;;;0.30;0.20;;;;;;;16.20;65.59;100253.66;5072285;28;20053;-62
2022/05/21 11:03:22;;;;;;;0.57;0.25;;;;;;;16.22;62.87;100267.53;5072715;28;20059;-63
2022/05/21 11:06:31;;;;;;;0.98;0.32;;;;;;;15.92;64.41;100253.00;5071811;28;20040;-62
2022/05/21 11:09:14;;;;;;;1.70;0.70;;;;;;;15.83;65.42;100279.47;5043516;28;20053;-63
2022/05/21 11:11:59;;;;;;;0.90;0.50;;;;;;;15.67;67.12;100269.59;5077040;28;20052;-62
2022/05/21 11:14:35;;;;;;;0.60;0.30;;;;;;;15.72;65.34;100265.06;5084100;28;20052;-62
2022/05/21 11:17:36;;;;;;;1.25;0.60;;;;;;;15.79;63.97;100281.34;5095766;28;20059;-62
2022/05/21 11:20:25;;;;;;;1.58;0.43;;;;;;;15.83;63.94;100279.47;5076630;28;20461;-62
2022/05/21 11:23:01;;;;;;;2.22;1.00;;;;;;;15.83;63.49;100296.00;5091572;28;20056;-62
2022/05/21 11:25:39;;;;;;;0.73;0.43;;;;;;;15.74;63.69;100297.22;5091260;28;20419;-62
2022/05/21 11:28:43;;;;;;;2.58;0.52;;;;;;;15.69;62.98;100287.84;5076443;28;20049;-62
2022/05/21 11:31:16;;;;;;;3.28;1.08;;;;;;;15.70;63.53;100300.84;5087399;28;20062;-63
2022/05/21 11:39:28;;;;;;;6.55;1.05;;;;;;;15.64;64.00;100314.13;5096704;28;20059;-63
2022/05/21 11:42:12;;;;;;;0.73;0.50;;;;;;;15.64;63.55;100313.28;5083752;28;20058;-63
2022/05/21 11:44:59;;;;;;;1.50;0.95;;;;;;;15.57;63.39;100323.03;5076279;28;20063;-63
2022/05/21 11:47:58;;;;;;;1.13;0.65;;;;;;;15.51;63.98;100325.88;5076355;28;20048;-62
2022/05/21 11:50:34;;;;;;;2.38;0.60;;;;;;;15.66;64.03;100335.84;5075791;28;20541;-63
2022/05/21 11:53:36;;;;;;;1.80;0.45;;;;;;;15.77;62.81;100338.06;5076224;28;20048;-62
2022/05/21 11:56:12;;;;;;;0.63;0.20;;;;;;;15.84;63.31;100334.31;5076260;28;20153;-62
2022/05/21 11:59:16;;;;;;;1.17;0.40;;;;;;;15.92;62.18;100362.78;5075859;28;20049;-62
2022/05/21 12:02:10;;;;;;;6.28;0.52;;;;;;;15.87;62.64;100347.25;5075756;28;20048;-63
2022/05/21 12:04:54;;;;;;;1.77;0.30;;;;;;;15.84;61.51;100354.38;5075446;28;20484;-63
2022/05/21 12:07:59;;;;;;;4.68;1.08;;;;;;;15.82;61.29;100357.03;5075962;28;20049;-63
2022/05/21 12:10:53;;;;;;;1.08;0.38;;;;;;;15.85;61.46;100351.69;4998013;28;20057;-63
2022/05/21 12:13:22;;;;;;;5.65;2.75;;;;;;;15.90;62.07;100359.38;5013867;28;20498;-62
2022/05/21 12:15:55;;;;;;;3.53;1.00;;;;;;;15.95;61.15;100375.75;5013862;28;20053;-62
2022/05/21 12:18:55;;;;;;;2.63;1.10;;;;;;;15.96;61.48;100369.59;5004633;28;20050;-61
2022/05/21 12:21:59;;;;;;;0.82;0.60;;;;;;;16.01;60.81;100372.91;4994186;28;20108;-62
2022/05/21 12:24:47;;;;;;;3.22;0.95;;;;;;;16.05;61.09;100371.88;4994220;28;20058;-62
2022/05/21 12:27:27;;;;;;;8.18;2.55;;;;;;;16.09;61.19;100365.63;4993883;28;20133;-62
2022/05/21 12:30:00;;;;;;;2.60;1.00;;;;;;;16.09;60.84;100376.09;4993904;28;20074;-63
2022/05/21 12:32:27;;;;;;;3.55;1.30;;;;;;;16.10;60.75;100375.19;4993713;28;20442;-63
2022/05/21 12:35:26;;;;;;;2.35;1.00;;;;;;;16.10;60.58;100383.88;4993990;28;20051;-62